sensor_id;sensor_type;location;lat;lon;timestamp;temperature;humidity
33865;DHT22;20159;51.072;13.526;2022-10-30T00:00:19;18.30;71.10
33865;DHT22;20159;51.072;13.526;2022-10-30T00:02:48;18.20;71.00
33865;DHT22;20159;51.072;13.526;2022-10-30T00:05:14;18.20;70.90
33865;DHT22;20159;51.072;13.526;2022-10-30T00:07:40;18.20;70.80
33865;DHT22;20159;51.072;13.526;2022-10-30T00:10:06;18.10;71.00
33865;DHT22;20159;51.072;13.526;2022-10-30T00:12:31;18.10;71.00
33865;DHT22;20159;51.072;13.526;2022-10-30T00:14:57;18.10;71.00
33865;DHT22;20159;51.072;13.526;2022-10-30T00:17:23;17.90;70.80
33865;DHT22;20159;51.072;13.526;2022-10-30T00:19:48;17.90;71.00
33865;DHT22;20159;51.072;13.526;2022-10-30T00:22:14;17.80;70.90
33865;DHT22;20159;51.072;13.526;2022-10-30T00:24:40;17.80;71.10
33865;DHT22;20159;51.072;13.526;2022-10-30T00:27:05;17.70;71.00
33865;DHT22;20159;51.072;13.526;2022-10-30T00:29:31;17.60;71.10
33865;DHT22;20159;51.072;13.526;2022-10-30T00:31:56;17.60;71.20
33865;DHT22;20159;51.072;13.526;2022-10-30T00:34:22;17.50;71.30
33865;DHT22;20159;51.072;13.526;2022-10-30T00:36:47;17.50;71.50
33865;DHT22;20159;51.072;13.526;2022-10-30T00:39:13;17.50;72.20
33865;DHT22;20159;51.072;13.526;2022-10-30T00:41:39;17.50;71.70
33865;DHT22;20159;51.072;13.526;2022-10-30T00:47:18;17.40;71.80
33865;DHT22;20159;51.072;13.526;2022-10-30T00:52:27;17.40;71.70
33865;DHT22;20159;51.072;13.526;2022-10-30T00:54:55;17.40;72.00
33865;DHT22;20159;51.072;13.526;2022-10-30T00:57:21;17.40;72.00
33865;DHT22;20159;51.072;13.526;2022-10-30T00:59:47;17.30;72.10
33865;DHT22;20159;51.072;13.526;2022-10-30T01:02:14;17.30;72.30
33865;DHT22;20159;51.072;13.526;2022-10-30T01:04:40;17.20;72.40
33865;DHT22;20159;51.072;13.526;2022-10-30T01:07:10;17.20;72.50
33865;DHT22;20159;51.072;13.526;2022-10-30T01:09:37;19.10;73.60
33865;DHT22;20159;51.072;13.526;2022-10-30T01:12:04;17.00;72.50
33865;DHT22;20159;51.072;13.526;2022-10-30T01:14:30;17.00;72.60
33865;DHT22;20159;51.072;13.526;2022-10-30T01:26:18;16.70;73.60
33865;DHT22;20159;51.072;13.526;2022-10-30T01:31:40;16.60;73.50
33865;DHT22;20159;51.072;13.526;2022-10-30T01:34:28;16.60;73.70
33865;DHT22;20159;51.072;13.526;2022-10-30T01:39:55;16.50;73.40
33865;DHT22;20159;51.072;13.526;2022-10-30T01:45:23;16.40;74.20
33865;DHT22;20159;51.072;13.526;2022-10-30T01:48:21;16.30;73.90
33865;DHT22;20159;51.072;13.526;2022-10-30T01:59:13;16.10;74.30
33865;DHT22;20159;51.072;13.526;2022-10-30T02:01:39;16.00;74.70
33865;DHT22;20159;51.072;13.526;2022-10-30T02:04:07;16.00;74.50
33865;DHT22;20159;51.072;13.526;2022-10-30T02:06:34;16.00;74.80
33865;DHT22;20159;51.072;13.526;2022-10-30T02:09:00;15.90;74.90
33865;DHT22;20159;51.072;13.526;2022-10-30T02:11:26;15.90;75.00
33865;DHT22;20159;51.072;13.526;2022-10-30T02:13:53;15.90;75.20
33865;DHT22;20159;51.072;13.526;2022-10-30T02:16:21;15.80;75.40
33865;DHT22;20159;51.072;13.526;2022-10-30T02:18:47;15.80;75.40
33865;DHT22;20159;51.072;13.526;2022-10-30T02:21:12;15.70;75.40
33865;DHT22;20159;51.072;13.526;2022-10-30T02:23:38;15.60;75.40
33865;DHT22;20159;51.072;13.526;2022-10-30T02:26:04;15.60;75.80
33865;DHT22;20159;51.072;13.526;2022-10-30T02:28:30;15.60;76.00
33865;DHT22;20159;51.072;13.526;2022-10-30T02:30:55;15.50;76.20
33865;DHT22;20159;51.072;13.526;2022-10-30T02:33:21;15.40;76.30
33865;DHT22;20159;51.072;13.526;2022-10-30T02:35:49;15.40;76.50
33865;DHT22;20159;51.072;13.526;2022-10-30T02:38:15;15.40;76.80
33865;DHT22;20159;51.072;13.526;2022-10-30T02:40:40;15.30;76.90
33865;DHT22;20159;51.072;13.526;2022-10-30T02:43:06;15.30;77.10
33865;DHT22;20159;51.072;13.526;2022-10-30T02:45:31;15.30;77.40
33865;DHT22;20159;51.072;13.526;2022-10-30T02:48:00;15.30;77.40
33865;DHT22;20159;51.072;13.526;2022-10-30T02:50:26;15.30;77.80
33865;DHT22;20159;51.072;13.526;2022-10-30T02:52:52;15.30;77.90
33865;DHT22;20159;51.072;13.526;2022-10-30T02:55:17;15.30;78.00
33865;DHT22;20159;51.072;13.526;2022-10-30T02:57:43;15.30;78.10
33865;DHT22;20159;51.072;13.526;2022-10-30T03:00:09;15.30;78.20
33865;DHT22;20159;51.072;13.526;2022-10-30T03:02:35;15.40;78.00
33865;DHT22;20159;51.072;13.526;2022-10-30T03:05:01;15.40;77.90
33865;DHT22;20159;51.072;13.526;2022-10-30T03:07:26;15.40;77.90
33865;DHT22;20159;51.072;13.526;2022-10-30T03:09:52;15.50;78.10
33865;DHT22;20159;51.072;13.526;2022-10-30T03:12:19;15.50;78.00
33865;DHT22;20159;51.072;13.526;2022-10-30T03:14:45;15.60;77.80
33865;DHT22;20159;51.072;13.526;2022-10-30T03:17:10;15.70;77.70
33865;DHT22;20159;51.072;13.526;2022-10-30T03:19:36;15.70;77.30
33865;DHT22;20159;51.072;13.526;2022-10-30T03:22:01;15.80;77.10
33865;DHT22;20159;51.072;13.526;2022-10-30T03:24:27;15.80;77.00
33865;DHT22;20159;51.072;13.526;2022-10-30T03:26:53;15.90;76.90
33865;DHT22;20159;51.072;13.526;2022-10-30T03:29:18;15.90;77.20
33865;DHT22;20159;51.072;13.526;2022-10-30T03:31:44;16.00;76.90
33865;DHT22;20159;51.072;13.526;2022-10-30T03:34:09;16.10;76.70
33865;DHT22;20159;51.072;13.526;2022-10-30T03:36:35;16.10;76.50
33865;DHT22;20159;51.072;13.526;2022-10-30T03:39:00;16.20;76.90
33865;DHT22;20159;51.072;13.526;2022-10-30T03:41:26;16.20;76.50
33865;DHT22;20159;51.072;13.526;2022-10-30T03:43:51;16.30;76.30
33865;DHT22;20159;51.072;13.526;2022-10-30T03:46:17;16.30;76.30
33865;DHT22;20159;51.072;13.526;2022-10-30T03:48:42;16.30;76.30
33865;DHT22;20159;51.072;13.526;2022-10-30T03:51:08;16.40;76.40
33865;DHT22;20159;51.072;13.526;2022-10-30T03:53:33;16.40;76.30
33865;DHT22;20159;51.072;13.526;2022-10-30T03:56:01;16.40;76.20
33865;DHT22;20159;51.072;13.526;2022-10-30T03:58:28;16.40;76.20
33865;DHT22;20159;51.072;13.526;2022-10-30T04:00:53;16.40;76.00
33865;DHT22;20159;51.072;13.526;2022-10-30T04:03:19;16.40;76.10
33865;DHT22;20159;51.072;13.526;2022-10-30T04:05:45;16.40;76.20
33865;DHT22;20159;51.072;13.526;2022-10-30T04:08:12;16.30;76.10
33865;DHT22;20159;51.072;13.526;2022-10-30T04:10:42;16.40;76.20
33865;DHT22;20159;51.072;13.526;2022-10-30T04:13:09;16.30;76.00
33865;DHT22;20159;51.072;13.526;2022-10-30T04:15:35;16.40;76.20
33865;DHT22;20159;51.072;13.526;2022-10-30T04:18:02;16.30;76.00
33865;DHT22;20159;51.072;13.526;2022-10-30T04:20:28;16.30;75.80
33865;DHT22;20159;51.072;13.526;2022-10-30T04:22:59;16.40;75.90
33865;DHT22;20159;51.072;13.526;2022-10-30T04:25:25;16.40;75.70
33865;DHT22;20159;51.072;13.526;2022-10-30T04:27:51;16.40;75.90
33865;DHT22;20159;51.072;13.526;2022-10-30T04:30:18;16.40;75.80
33865;DHT22;20159;51.072;13.526;2022-10-30T04:32:49;16.40;75.60
33865;DHT22;20159;51.072;13.526;2022-10-30T04:35:16;16.40;75.40
33865;DHT22;20159;51.072;13.526;2022-10-30T04:37:48;16.40;75.30
33865;DHT22;20159;51.072;13.526;2022-10-30T04:40:15;16.40;75.10
33865;DHT22;20159;51.072;13.526;2022-10-30T04:42:41;16.40;75.10
33865;DHT22;20159;51.072;13.526;2022-10-30T04:45:07;16.40;75.00
33865;DHT22;20159;51.072;13.526;2022-10-30T04:47:33;16.40;74.90
33865;DHT22;20159;51.072;13.526;2022-10-30T04:49:58;16.30;74.80
33865;DHT22;20159;51.072;13.526;2022-10-30T04:52:24;16.30;74.90
33865;DHT22;20159;51.072;13.526;2022-10-30T04:54:49;16.30;74.90
33865;DHT22;20159;51.072;13.526;2022-10-30T04:57:15;16.30;75.00
33865;DHT22;20159;51.072;13.526;2022-10-30T04:59:40;16.20;74.90
33865;DHT22;20159;51.072;13.526;2022-10-30T05:02:06;16.20;75.50
33865;DHT22;20159;51.072;13.526;2022-10-30T05:04:31;16.20;75.50
33865;DHT22;20159;51.072;13.526;2022-10-30T05:06:57;16.20;75.10
33865;DHT22;20159;51.072;13.526;2022-10-30T05:09:22;16.10;75.10
33865;DHT22;20159;51.072;13.526;2022-10-30T05:11:48;16.10;75.40
33865;DHT22;20159;51.072;13.526;2022-10-30T05:14:13;16.10;75.50
33865;DHT22;20159;51.072;13.526;2022-10-30T05:16:39;16.10;75.50
33865;DHT22;20159;51.072;13.526;2022-10-30T05:19:04;16.10;75.30
33865;DHT22;20159;51.072;13.526;2022-10-30T05:21:30;16.10;75.50
33865;DHT22;20159;51.072;13.526;2022-10-30T05:23:55;16.10;75.50
33865;DHT22;20159;51.072;13.526;2022-10-30T05:26:21;16.10;75.50
33865;DHT22;20159;51.072;13.526;2022-10-30T05:28:46;16.10;75.40
33865;DHT22;20159;51.072;13.526;2022-10-30T05:31:12;16.10;75.30
33865;DHT22;20159;51.072;13.526;2022-10-30T05:33:37;16.10;75.30
33865;DHT22;20159;51.072;13.526;2022-10-30T05:36:03;16.10;75.30
33865;DHT22;20159;51.072;13.526;2022-10-30T05:38:29;16.20;75.50
33865;DHT22;20159;51.072;13.526;2022-10-30T05:40:54;16.20;75.60
33865;DHT22;20159;51.072;13.526;2022-10-30T05:43:20;16.20;75.60
33865;DHT22;20159;51.072;13.526;2022-10-30T05:45:48;16.20;75.70
33865;DHT22;20159;51.072;13.526;2022-10-30T05:48:14;16.20;75.70
33865;DHT22;20159;51.072;13.526;2022-10-30T05:50:39;16.40;75.80
33865;DHT22;20159;51.072;13.526;2022-10-30T05:53:05;16.20;75.80
33865;DHT22;20159;51.072;13.526;2022-10-30T05:55:31;16.20;75.90
33865;DHT22;20159;51.072;13.526;2022-10-30T05:57:58;16.20;76.00
33865;DHT22;20159;51.072;13.526;2022-10-30T06:00:25;16.10;76.00
33865;DHT22;20159;51.072;13.526;2022-10-30T06:02:51;16.10;76.00
33865;DHT22;20159;51.072;13.526;2022-10-30T06:05:16;16.10;76.10
33865;DHT22;20159;51.072;13.526;2022-10-30T06:07:42;16.10;76.30
33865;DHT22;20159;51.072;13.526;2022-10-30T06:10:08;16.00;76.20
33865;DHT22;20159;51.072;13.526;2022-10-30T06:12:33;16.00;76.10
33865;DHT22;20159;51.072;13.526;2022-10-30T06:14:59;16.00;76.10
33865;DHT22;20159;51.072;13.526;2022-10-30T06:17:25;16.00;76.50
33865;DHT22;20159;51.072;13.526;2022-10-30T06:19:50;16.00;76.40
33865;DHT22;20159;51.072;13.526;2022-10-30T06:22:16;16.00;76.50
33865;DHT22;20159;51.072;13.526;2022-10-30T06:24:41;16.00;76.60
33865;DHT22;20159;51.072;13.526;2022-10-30T06:27:07;16.10;76.70
33865;DHT22;20159;51.072;13.526;2022-10-30T06:29:32;16.00;76.70
33865;DHT22;20159;51.072;13.526;2022-10-30T06:31:58;16.00;76.80
33865;DHT22;20159;51.072;13.526;2022-10-30T06:34:23;16.10;77.00
33865;DHT22;20159;51.072;13.526;2022-10-30T06:36:50;16.10;77.10
33865;DHT22;20159;51.072;13.526;2022-10-30T06:39:15;16.10;76.80
33865;DHT22;20159;51.072;13.526;2022-10-30T06:41:41;16.10;76.80
33865;DHT22;20159;51.072;13.526;2022-10-30T06:44:06;16.20;76.90
33865;DHT22;20159;51.072;13.526;2022-10-30T06:46:32;16.20;76.70
33865;DHT22;20159;51.072;13.526;2022-10-30T06:48:57;16.30;77.00
33865;DHT22;20159;51.072;13.526;2022-10-30T06:51:23;16.30;77.00
33865;DHT22;20159;51.072;13.526;2022-10-30T06:53:49;16.40;77.30
33865;DHT22;20159;51.072;13.526;2022-10-30T06:56:14;16.40;77.40
33865;DHT22;20159;51.072;13.526;2022-10-30T06:58:40;16.50;77.30
33865;DHT22;20159;51.072;13.526;2022-10-30T07:01:06;16.60;77.20
33865;DHT22;20159;51.072;13.526;2022-10-30T07:03:32;16.70;77.60
33865;DHT22;20159;51.072;13.526;2022-10-30T07:05:58;16.80;77.40
33865;DHT22;20159;51.072;13.526;2022-10-30T07:08:23;16.80;77.30
33865;DHT22;20159;51.072;13.526;2022-10-30T07:10:49;17.00;76.50
33865;DHT22;20159;51.072;13.526;2022-10-30T07:13:15;17.00;76.20
33865;DHT22;20159;51.072;13.526;2022-10-30T07:15:41;17.10;76.90
33865;DHT22;20159;51.072;13.526;2022-10-30T07:18:08;17.20;76.90
33865;DHT22;20159;51.072;13.526;2022-10-30T07:20:34;17.40;77.00
33865;DHT22;20159;51.072;13.526;2022-10-30T07:23:00;17.40;77.10
33865;DHT22;20159;51.072;13.526;2022-10-30T07:25:26;17.50;77.40
33865;DHT22;20159;51.072;13.526;2022-10-30T07:27:53;17.60;77.60
33865;DHT22;20159;51.072;13.526;2022-10-30T07:30:21;17.60;77.50
33865;DHT22;20159;51.072;13.526;2022-10-30T07:33:01;17.80;78.10
33865;DHT22;20159;51.072;13.526;2022-10-30T07:35:27;17.90;78.70
33865;DHT22;20159;51.072;13.526;2022-10-30T07:37:53;18.10;79.90
33865;DHT22;20159;51.072;13.526;2022-10-30T07:40:19;18.30;80.40
33865;DHT22;20159;51.072;13.526;2022-10-30T07:42:45;18.60;81.00
33865;DHT22;20159;51.072;13.526;2022-10-30T07:45:11;19.00;80.90
33865;DHT22;20159;51.072;13.526;2022-10-30T07:47:41;19.40;82.00
33865;DHT22;20159;51.072;13.526;2022-10-30T07:50:10;19.90;82.50
33865;DHT22;20159;51.072;13.526;2022-10-30T07:52:36;20.40;80.90
33865;DHT22;20159;51.072;13.526;2022-10-30T07:55:02;21.00;79.70
33865;DHT22;20159;51.072;13.526;2022-10-30T07:57:33;21.40;76.90
33865;DHT22;20159;51.072;13.526;2022-10-30T07:59:59;21.70;75.50
33865;DHT22;20159;51.072;13.526;2022-10-30T08:02:24;22.00;75.30
33865;DHT22;20159;51.072;13.526;2022-10-30T08:04:50;22.30;74.60
33865;DHT22;20159;51.072;13.526;2022-10-30T08:07:15;22.60;74.20
33865;DHT22;20159;51.072;13.526;2022-10-30T08:09:41;22.90;73.30
33865;DHT22;20159;51.072;13.526;2022-10-30T08:12:06;23.30;72.00
33865;DHT22;20159;51.072;13.526;2022-10-30T08:14:32;23.50;71.20
33865;DHT22;20159;51.072;13.526;2022-10-30T08:16:59;23.70;70.30
33865;DHT22;20159;51.072;13.526;2022-10-30T08:19:24;23.80;69.10
33865;DHT22;20159;51.072;13.526;2022-10-30T08:21:50;24.00;70.10
33865;DHT22;20159;51.072;13.526;2022-10-30T08:24:15;24.30;70.80
33865;DHT22;20159;51.072;13.526;2022-10-30T08:26:41;24.60;68.70
33865;DHT22;20159;51.072;13.526;2022-10-30T08:29:06;25.00;68.50
33865;DHT22;20159;51.072;13.526;2022-10-30T08:31:32;25.40;65.80
33865;DHT22;20159;51.072;13.526;2022-10-30T08:33:57;25.90;65.80
33865;DHT22;20159;51.072;13.526;2022-10-30T08:36:23;26.60;65.00
33865;DHT22;20159;51.072;13.526;2022-10-30T08:38:48;26.80;62.40
33865;DHT22;20159;51.072;13.526;2022-10-30T08:41:14;27.30;61.80
33865;DHT22;20159;51.072;13.526;2022-10-30T08:43:39;27.80;60.70
33865;DHT22;20159;51.072;13.526;2022-10-30T08:46:05;28.20;60.60
33865;DHT22;20159;51.072;13.526;2022-10-30T08:48:31;28.70;59.40
33865;DHT22;20159;51.072;13.526;2022-10-30T08:50:59;29.20;58.30
33865;DHT22;20159;51.072;13.526;2022-10-30T08:53:27;29.60;55.80
33865;DHT22;20159;51.072;13.526;2022-10-30T08:55:53;30.00;56.20
33865;DHT22;20159;51.072;13.526;2022-10-30T08:58:18;30.40;54.80
33865;DHT22;20159;51.072;13.526;2022-10-30T09:00:44;30.80;53.40
33865;DHT22;20159;51.072;13.526;2022-10-30T09:03:10;31.20;52.70
33865;DHT22;20159;51.072;13.526;2022-10-30T09:05:36;31.30;50.50
33865;DHT22;20159;51.072;13.526;2022-10-30T09:08:01;31.50;49.40
33865;DHT22;20159;51.072;13.526;2022-10-30T09:10:27;31.50;47.60
33865;DHT22;20159;51.072;13.526;2022-10-30T09:12:58;31.50;47.20
33865;DHT22;20159;51.072;13.526;2022-10-30T09:15:24;31.20;46.00
33865;DHT22;20159;51.072;13.526;2022-10-30T09:17:58;31.00;46.40
33865;DHT22;20159;51.072;13.526;2022-10-30T09:20:24;30.70;45.50
33865;DHT22;20159;51.072;13.526;2022-10-30T09:22:50;30.50;46.00
33865;DHT22;20159;51.072;13.526;2022-10-30T09:25:15;30.20;46.90
33865;DHT22;20159;51.072;13.526;2022-10-30T09:27:41;30.10;47.50
33865;DHT22;20159;51.072;13.526;2022-10-30T09:30:07;30.00;48.00
33865;DHT22;20159;51.072;13.526;2022-10-30T09:32:33;30.10;48.40
33865;DHT22;20159;51.072;13.526;2022-10-30T09:34:59;30.20;47.20
33865;DHT22;20159;51.072;13.526;2022-10-30T09:37:24;30.30;48.00
33865;DHT22;20159;51.072;13.526;2022-10-30T09:39:51;30.40;47.40
33865;DHT22;20159;51.072;13.526;2022-10-30T09:42:39;30.50;47.60
33865;DHT22;20159;51.072;13.526;2022-10-30T09:53:40;31.20;45.20
33865;DHT22;20159;51.072;13.526;2022-10-30T09:56:28;31.40;45.50
33865;DHT22;20159;51.072;13.526;2022-10-30T10:01:38;31.70;45.80
33865;DHT22;20159;51.072;13.526;2022-10-30T10:04:30;31.80;44.00
33865;DHT22;20159;51.072;13.526;2022-10-30T10:07:05;31.90;43.60
33865;DHT22;20159;51.072;13.526;2022-10-30T10:09:33;32.00;43.40
33865;DHT22;20159;51.072;13.526;2022-10-30T10:12:05;32.10;43.70
33865;DHT22;20159;51.072;13.526;2022-10-30T10:14:34;32.20;42.90
33865;DHT22;20159;51.072;13.526;2022-10-30T10:17:04;32.20;43.00
33865;DHT22;20159;51.072;13.526;2022-10-30T10:19:39;32.20;43.00
33865;DHT22;20159;51.072;13.526;2022-10-30T10:22:19;32.20;43.30
33865;DHT22;20159;51.072;13.526;2022-10-30T10:24:45;32.20;43.00
33865;DHT22;20159;51.072;13.526;2022-10-30T10:38:58;31.60;42.90
33865;DHT22;20159;51.072;13.526;2022-10-30T10:52:00;31.30;43.60
33865;DHT22;20159;51.072;13.526;2022-10-30T10:54:42;31.30;43.50
33865;DHT22;20159;51.072;13.526;2022-10-30T10:57:24;31.30;43.50
33865;DHT22;20159;51.072;13.526;2022-10-30T10:59:55;31.30;43.50
33865;DHT22;20159;51.072;13.526;2022-10-30T11:02:36;31.40;43.40
33865;DHT22;20159;51.072;13.526;2022-10-30T11:05:12;31.30;44.00
33865;DHT22;20159;51.072;13.526;2022-10-30T11:07:48;31.40;43.90
33865;DHT22;20159;51.072;13.526;2022-10-30T11:10:16;31.60;43.50
33865;DHT22;20159;51.072;13.526;2022-10-30T11:12:42;31.70;43.30
33865;DHT22;20159;51.072;13.526;2022-10-30T11:18:02;31.90;43.00
33865;DHT22;20159;51.072;13.526;2022-10-30T11:20:52;32.00;43.50
33865;DHT22;20159;51.072;13.526;2022-10-30T11:23:43;32.10;43.10
33865;DHT22;20159;51.072;13.526;2022-10-30T11:29:10;32.20;42.50
33865;DHT22;20159;51.072;13.526;2022-10-30T11:31:41;32.30;42.90
33865;DHT22;20159;51.072;13.526;2022-10-30T11:36:41;32.50;43.70
33865;DHT22;20159;51.072;13.526;2022-10-30T11:39:21;32.50;43.50
33865;DHT22;20159;51.072;13.526;2022-10-30T11:42:16;32.70;42.80
33865;DHT22;20159;51.072;13.526;2022-10-30T11:44:47;32.80;42.20
33865;DHT22;20159;51.072;13.526;2022-10-30T11:47:14;32.80;42.10
33865;DHT22;20159;51.072;13.526;2022-10-30T11:49:45;32.90;42.20
33865;DHT22;20159;51.072;13.526;2022-10-30T11:52:15;32.80;41.20
33865;DHT22;20159;51.072;13.526;2022-10-30T11:54:45;32.70;42.40
33865;DHT22;20159;51.072;13.526;2022-10-30T11:59:47;32.60;42.40
33865;DHT22;20159;51.072;13.526;2022-10-30T12:02:40;32.60;42.10
33865;DHT22;20159;51.072;13.526;2022-10-30T12:05:32;32.50;41.80
33865;DHT22;20159;51.072;13.526;2022-10-30T12:10:41;32.50;42.20
33865;DHT22;20159;51.072;13.526;2022-10-30T12:13:12;32.40;42.10
33865;DHT22;20159;51.072;13.526;2022-10-30T12:15:39;32.40;44.00
33865;DHT22;20159;51.072;13.526;2022-10-30T12:18:06;32.30;42.80
33865;DHT22;20159;51.072;13.526;2022-10-30T12:20:36;32.20;42.50
33865;DHT22;20159;51.072;13.526;2022-10-30T12:23:16;32.20;42.30
33865;DHT22;20159;51.072;13.526;2022-10-30T12:25:51;32.00;42.80
33865;DHT22;20159;51.072;13.526;2022-10-30T12:28:23;32.00;43.20
33865;DHT22;20159;51.072;13.526;2022-10-30T12:31:03;31.90;43.10
33865;DHT22;20159;51.072;13.526;2022-10-30T12:33:38;31.90;43.70
33865;DHT22;20159;51.072;13.526;2022-10-30T12:36:20;31.80;43.10
33865;DHT22;20159;51.072;13.526;2022-10-30T12:42:00;31.80;44.10
33865;DHT22;20159;51.072;13.526;2022-10-30T12:44:35;31.90;43.40
33865;DHT22;20159;51.072;13.526;2022-10-30T12:47:03;32.00;44.00
33865;DHT22;20159;51.072;13.526;2022-10-30T12:54:50;32.20;43.70
33865;DHT22;20159;51.072;13.526;2022-10-30T12:57:19;32.30;43.60
33865;DHT22;20159;51.072;13.526;2022-10-30T13:00:09;32.40;43.40
33865;DHT22;20159;51.072;13.526;2022-10-30T13:05:27;32.60;43.50
33865;DHT22;20159;51.072;13.526;2022-10-30T13:08:22;32.70;42.70
33865;DHT22;20159;51.072;13.526;2022-10-30T13:10:53;32.80;43.70
33865;DHT22;20159;51.072;13.526;2022-10-30T13:13:30;32.80;42.90
33865;DHT22;20159;51.072;13.526;2022-10-30T13:15:57;32.90;43.90
33865;DHT22;20159;51.072;13.526;2022-10-30T13:18:25;32.90;42.70
33865;DHT22;20159;51.072;13.526;2022-10-30T13:21:06;32.90;42.70
33865;DHT22;20159;51.072;13.526;2022-10-30T13:29:03;32.90;42.50
33865;DHT22;20159;51.072;13.526;2022-10-30T13:31:50;32.90;42.30
33865;DHT22;20159;51.072;13.526;2022-10-30T13:34:51;32.80;43.00
33865;DHT22;20159;51.072;13.526;2022-10-30T13:37:22;32.60;42.80
33865;DHT22;20159;51.072;13.526;2022-10-30T13:40:13;32.40;42.80
33865;DHT22;20159;51.072;13.526;2022-10-30T13:43:00;32.40;43.50
33865;DHT22;20159;51.072;13.526;2022-10-30T13:45:51;32.20;42.80
33865;DHT22;20159;51.072;13.526;2022-10-30T13:53:44;31.60;43.80
33865;DHT22;20159;51.072;13.526;2022-10-30T13:56:15;31.40;44.10
33865;DHT22;20159;51.072;13.526;2022-10-30T14:04:37;31.00;43.10
33865;DHT22;20159;51.072;13.526;2022-10-30T14:10:06;30.70;44.10
33865;DHT22;20159;51.072;13.526;2022-10-30T14:15:33;30.30;44.00
33865;DHT22;20159;51.072;13.526;2022-10-30T14:20:47;30.00;46.60
33865;DHT22;20159;51.072;13.526;2022-10-30T14:28:39;29.60;48.40
33865;DHT22;20159;51.072;13.526;2022-10-30T14:31:16;29.50;48.80
33865;DHT22;20159;51.072;13.526;2022-10-30T14:44:45;28.80;49.30
33865;DHT22;20159;51.072;13.526;2022-10-30T14:47:42;28.60;49.80
33865;DHT22;20159;51.072;13.526;2022-10-30T14:53:04;28.20;50.80
33865;DHT22;20159;51.072;13.526;2022-10-30T14:55:52;28.00;51.20
33865;DHT22;20159;51.072;13.526;2022-10-30T14:58:23;27.70;51.30
33865;DHT22;20159;51.072;13.526;2022-10-30T15:00:51;27.50;51.70
33865;DHT22;20159;51.072;13.526;2022-10-30T15:03:26;27.30;51.70
33865;DHT22;20159;51.072;13.526;2022-10-30T15:14:29;26.30;53.20
33865;DHT22;20159;51.072;13.526;2022-10-30T15:16:56;26.00;54.50
33865;DHT22;20159;51.072;13.526;2022-10-30T15:19:22;25.80;54.90
33865;DHT22;20159;51.072;13.526;2022-10-30T15:21:51;25.60;55.50
33865;DHT22;20159;51.072;13.526;2022-10-30T15:24:20;25.30;56.30
33865;DHT22;20159;51.072;13.526;2022-10-30T15:26:53;25.10;56.90
33865;DHT22;20159;51.072;13.526;2022-10-30T15:29:27;24.90;57.70
33865;DHT22;20159;51.072;13.526;2022-10-30T15:31:58;24.60;58.60
33865;DHT22;20159;51.072;13.526;2022-10-30T15:34:25;24.40;58.80
33865;DHT22;20159;51.072;13.526;2022-10-30T15:36:51;24.10;59.00
33865;DHT22;20159;51.072;13.526;2022-10-30T15:39:17;23.90;59.50
33865;DHT22;20159;51.072;13.526;2022-10-30T15:41:49;23.70;60.10
33865;DHT22;20159;51.072;13.526;2022-10-30T15:44:20;23.40;60.30
33865;DHT22;20159;51.072;13.526;2022-10-30T15:46:48;23.20;60.90
33865;DHT22;20159;51.072;13.526;2022-10-30T15:49:20;23.00;61.30
33865;DHT22;20159;51.072;13.526;2022-10-30T15:51:47;22.80;62.10
33865;DHT22;20159;51.072;13.526;2022-10-30T15:54:16;22.50;62.20
33865;DHT22;20159;51.072;13.526;2022-10-30T15:56:47;22.30;63.00
33865;DHT22;20159;51.072;13.526;2022-10-30T15:59:34;22.10;62.80
33865;DHT22;20159;51.072;13.526;2022-10-30T16:02:00;21.80;63.70
33865;DHT22;20159;51.072;13.526;2022-10-30T16:04:30;21.70;63.50
33865;DHT22;20159;51.072;13.526;2022-10-30T16:06:59;21.50;64.00
33865;DHT22;20159;51.072;13.526;2022-10-30T16:09:26;21.30;64.30
33865;DHT22;20159;51.072;13.526;2022-10-30T16:11:55;21.00;64.60
33865;DHT22;20159;51.072;13.526;2022-10-30T16:14:26;20.90;65.10
33865;DHT22;20159;51.072;13.526;2022-10-30T16:16:52;20.70;66.00
33865;DHT22;20159;51.072;13.526;2022-10-30T16:19:28;20.50;65.10
33865;DHT22;20159;51.072;13.526;2022-10-30T16:21:55;20.30;65.50
33865;DHT22;20159;51.072;13.526;2022-10-30T16:24:28;20.20;66.20
33865;DHT22;20159;51.072;13.526;2022-10-30T16:27:21;20.00;67.10
33865;DHT22;20159;51.072;13.526;2022-10-30T16:29:50;19.80;67.70
33865;DHT22;20159;51.072;13.526;2022-10-30T16:32:20;19.70;67.40
33865;DHT22;20159;51.072;13.526;2022-10-30T16:34:46;19.50;67.40
33865;DHT22;20159;51.072;13.526;2022-10-30T16:37:36;19.40;67.60
33865;DHT22;20159;51.072;13.526;2022-10-30T16:40:12;19.20;69.40
33865;DHT22;20159;51.072;13.526;2022-10-30T16:42:38;19.00;69.30
33865;DHT22;20159;51.072;13.526;2022-10-30T16:47:53;18.70;70.70
33865;DHT22;20159;51.072;13.526;2022-10-30T16:50:35;18.60;70.40
33865;DHT22;20159;51.072;13.526;2022-10-30T16:53:27;18.50;71.00
33865;DHT22;20159;51.072;13.526;2022-10-30T16:55:53;18.40;71.40
33865;DHT22;20159;51.072;13.526;2022-10-30T16:58:20;18.30;71.30
33865;DHT22;20159;51.072;13.526;2022-10-30T17:00:53;18.20;71.70
33865;DHT22;20159;51.072;13.526;2022-10-30T17:03:22;18.00;72.80
33865;DHT22;20159;51.072;13.526;2022-10-30T17:06:27;18.00;73.10
33865;DHT22;20159;51.072;13.526;2022-10-30T17:08:56;17.90;74.20
33865;DHT22;20159;51.072;13.526;2022-10-30T17:14:01;17.70;74.30
33865;DHT22;20159;51.072;13.526;2022-10-30T17:16:29;17.70;73.70
33865;DHT22;20159;51.072;13.526;2022-10-30T17:22:01;17.50;75.30
33865;DHT22;20159;51.072;13.526;2022-10-30T17:24:31;17.50;75.00
33865;DHT22;20159;51.072;13.526;2022-10-30T17:26:59;17.40;75.20
33865;DHT22;20159;51.072;13.526;2022-10-30T17:32:03;17.30;77.00
33865;DHT22;20159;51.072;13.526;2022-10-30T17:34:29;17.30;76.10
33865;DHT22;20159;51.072;13.526;2022-10-30T17:36:55;17.30;76.50
33865;DHT22;20159;51.072;13.526;2022-10-30T17:39:24;17.30;76.80
33865;DHT22;20159;51.072;13.526;2022-10-30T17:41:50;17.20;76.80
33865;DHT22;20159;51.072;13.526;2022-10-30T17:44:22;17.20;77.10
33865;DHT22;20159;51.072;13.526;2022-10-30T17:46:48;17.10;77.60
33865;DHT22;20159;51.072;13.526;2022-10-30T17:49:27;17.20;76.90
33865;DHT22;20159;51.072;13.526;2022-10-30T17:51:53;17.10;77.80
33865;DHT22;20159;51.072;13.526;2022-10-30T17:54:19;17.10;76.90
33865;DHT22;20159;51.072;13.526;2022-10-30T17:56:45;17.00;76.90
33865;DHT22;20159;51.072;13.526;2022-10-30T17:59:10;17.00;77.00
33865;DHT22;20159;51.072;13.526;2022-10-30T18:01:36;16.90;77.20